createdAt,value
2023-05-10T00:01:45.244Z,96045.88
2023-05-10T00:04:11.574Z,96044.34
2023-05-10T00:06:37.931Z,96047.38
2023-05-10T00:09:04.225Z,96046.03
2023-05-10T00:11:30.519Z,96036.81
2023-05-10T00:13:56.834Z,96030.38
2023-05-10T00:16:23.140Z,96027.41
2023-05-10T00:18:49.479Z,96029.22
2023-05-10T00:21:15.794Z,96027.69
2023-05-10T00:23:42.099Z,96032.16
2023-05-10T00:26:08.415Z,96040.09
2023-05-10T00:28:34.726Z,96023.81
2023-05-10T00:31:01.005Z,96029.31
2023-05-10T00:33:27.297Z,96033.81
2023-05-10T00:36:02.632Z,96034.13
2023-05-10T00:38:28.945Z,96042.72
2023-05-10T00:40:55.288Z,96034.91
2023-05-10T00:43:21.596Z,96033.50
2023-05-10T00:45:47.953Z,96034.63
2023-05-10T00:48:14.344Z,96035.41
2023-05-10T00:50:40.633Z,96036.75
2023-05-10T00:53:06.916Z,96039.31
2023-05-10T00:55:33.212Z,96043.56
2023-05-10T00:57:59.611Z,96043.06
2023-05-10T01:00:25.911Z,96045.06
2023-05-10T01:02:52.326Z,96040.41
2023-05-10T01:05:18.772Z,96041.97
2023-05-10T01:07:45.217Z,96042.34
2023-05-10T01:10:11.585Z,96038.31
2023-05-10T01:12:37.945Z,96043.97
2023-05-10T01:15:04.280Z,96043.38
2023-05-10T01:17:30.612Z,96041.00
2023-05-10T01:19:56.933Z,96039.63
2023-05-10T01:22:23.224Z,96037.00
2023-05-10T01:24:49.530Z,96025.78
2023-05-10T01:27:15.827Z,96034.84
2023-05-10T01:29:42.134Z,96046.00
2023-05-10T01:32:08.447Z,96048.63
2023-05-10T01:34:34.748Z,96045.91
2023-05-10T01:37:01.046Z,96059.34
2023-05-10T01:39:27.368Z,96053.13
2023-05-10T01:41:53.653Z,96052.97
2023-05-10T01:44:19.929Z,96054.59
2023-05-10T01:46:46.316Z,96051.31
2023-05-10T01:49:12.650Z,96052.91
2023-05-10T01:51:38.987Z,96050.72
2023-05-10T01:54:05.345Z,96058.94
2023-05-10T01:56:31.632Z,96055.78
2023-05-10T01:58:57.951Z,96052.75
2023-05-10T02:01:24.317Z,96049.16
2023-05-10T02:03:50.673Z,96057.38
2023-05-10T02:06:17.081Z,96044.22
2023-05-10T02:08:43.398Z,96049.38
2023-05-10T02:11:09.680Z,96053.59
2023-05-10T02:13:35.978Z,96034.84
2023-05-10T02:16:02.293Z,96038.13
2023-05-10T02:18:28.587Z,96045.34
2023-05-10T02:20:54.893Z,96041.19
2023-05-10T02:23:21.217Z,96039.59
2023-05-10T02:25:47.518Z,96045.41
2023-05-10T02:28:13.816Z,96042.50
2023-05-10T02:30:40.142Z,96045.22
2023-05-10T02:33:06.467Z,96042.66
2023-05-10T02:35:32.793Z,96050.56
2023-05-10T02:37:59.115Z,96040.75
2023-05-10T02:40:28.032Z,96053.72
2023-05-10T02:42:55.032Z,96050.38
2023-05-10T02:45:21.353Z,96058.84
2023-05-10T02:47:47.679Z,96061.25
2023-05-10T02:50:14.207Z,96058.69
2023-05-10T02:52:40.827Z,96055.44
2023-05-10T02:55:07.162Z,96061.13
2023-05-10T02:57:33.460Z,96050.78
2023-05-10T02:59:59.807Z,96070.84
2023-05-10T03:02:26.172Z,96064.06
2023-05-10T03:04:52.516Z,96070.75
2023-05-10T03:07:18.833Z,96065.06
2023-05-10T03:09:45.140Z,96077.88
2023-05-10T03:12:11.443Z,96069.97
2023-05-10T03:14:37.737Z,96076.41
2023-05-10T03:17:04.024Z,96077.50
2023-05-10T03:19:30.316Z,96079.44
2023-05-10T03:21:56.630Z,96077.97
2023-05-10T03:24:22.911Z,96088.50
2023-05-10T03:26:49.208Z,96087.13
2023-05-10T03:29:15.540Z,96077.00
2023-05-10T03:31:41.905Z,96074.31
2023-05-10T03:34:08.273Z,96078.66
2023-05-10T03:36:34.620Z,96080.06
2023-05-10T03:39:00.910Z,96079.66
2023-05-10T03:41:27.199Z,96081.75
2023-05-10T03:43:53.516Z,96080.78
2023-05-10T03:46:19.821Z,96077.41
2023-05-10T03:48:46.141Z,96090.72
2023-05-10T03:51:12.490Z,96092.84
2023-05-10T03:53:38.784Z,96097.22
2023-05-10T03:56:05.075Z,96090.72
2023-05-10T03:58:31.499Z,96090.41
2023-05-10T04:00:57.795Z,96085.31
2023-05-10T04:03:24.240Z,96094.84
2023-05-10T04:05:50.680Z,96092.16
2023-05-10T04:08:17.019Z,96093.16
2023-05-10T04:10:43.298Z,96092.53
2023-05-10T04:13:09.707Z,96099.19
2023-05-10T04:15:36.028Z,96101.00
2023-05-10T04:18:02.385Z,96095.69
2023-05-10T04:20:28.735Z,96092.22
2023-05-10T04:22:55.046Z,96098.94
2023-05-10T04:25:21.361Z,96108.69
2023-05-10T04:27:47.679Z,96106.28
2023-05-10T04:30:14.121Z,96105.69
2023-05-10T04:32:40.576Z,96112.72
2023-05-10T04:35:06.924Z,96112.66
2023-05-10T04:37:33.224Z,96111.88
2023-05-10T04:39:59.527Z,96118.63
2023-05-10T04:42:25.844Z,96131.38
2023-05-10T04:44:52.136Z,96130.22
2023-05-10T04:47:18.433Z,96130.94
2023-05-10T04:49:44.743Z,96132.47
2023-05-10T04:52:11.039Z,96131.59
2023-05-10T04:54:37.346Z,96137.56
2023-05-10T04:57:03.665Z,96132.56
2023-05-10T04:59:29.953Z,96126.44
2023-05-10T05:01:56.303Z,96125.06
2023-05-10T05:04:22.662Z,96134.00
2023-05-10T05:06:48.972Z,96133.75
2023-05-10T05:09:15.460Z,96134.97
2023-05-10T05:11:41.841Z,96132.38
2023-05-10T05:14:08.127Z,96133.41
2023-05-10T05:16:34.477Z,96137.75
2023-05-10T05:19:00.847Z,96141.50
2023-05-10T05:21:27.145Z,96134.59
2023-05-10T05:23:53.437Z,96134.66
2023-05-10T05:26:19.787Z,96134.97
2023-05-10T05:28:46.081Z,96132.63
2023-05-10T05:31:12.407Z,96126.81
2023-05-10T05:33:38.745Z,96136.56
2023-05-10T05:36:05.040Z,96131.78
2023-05-10T05:38:31.359Z,96131.38
2023-05-10T05:40:57.699Z,96132.44
2023-05-10T05:43:24.012Z,96134.91
2023-05-10T05:45:50.337Z,96142.44
2023-05-10T05:48:16.696Z,96143.72
2023-05-10T05:50:43.008Z,96149.50
2023-05-10T05:53:09.350Z,96154.94
2023-05-10T05:55:35.674Z,96156.44
2023-05-10T05:58:01.975Z,96162.41
2023-05-10T06:00:28.309Z,96165.88
2023-05-10T06:02:54.700Z,96165.97
2023-05-10T06:05:21.167Z,96153.97
2023-05-10T06:07:47.560Z,96155.59
2023-05-10T06:10:13.880Z,96159.13
2023-05-10T06:12:40.261Z,96164.66
2023-05-10T06:15:06.571Z,96167.38
2023-05-10T06:17:32.995Z,96160.25
2023-05-10T06:19:59.292Z,96166.72
2023-05-10T06:22:25.594Z,96171.50
2023-05-10T06:24:51.909Z,96169.91
2023-05-10T06:27:18.213Z,96165.97
2023-05-10T06:29:44.495Z,96162.00
2023-05-10T06:32:10.796Z,96158.03
2023-05-10T06:34:37.088Z,96160.19
2023-05-10T06:37:03.382Z,96165.69
2023-05-10T06:39:29.718Z,96163.81
2023-05-10T06:41:56.009Z,96164.38
2023-05-10T06:44:22.289Z,96163.25
2023-05-10T06:46:48.704Z,96172.28
2023-05-10T06:49:15.013Z,96165.31
2023-05-10T06:51:41.301Z,96160.72
2023-05-10T06:54:07.623Z,96158.06
2023-05-10T06:56:33.918Z,96160.16
2023-05-10T06:59:00.377Z,96160.84
2023-05-10T07:01:26.827Z,96161.97
2023-05-10T07:03:53.204Z,96174.06
2023-05-10T07:06:32.340Z,96172.41
2023-05-10T07:08:59.924Z,96178.66
2023-05-10T07:11:26.205Z,96170.59
2023-05-10T07:13:52.491Z,96177.78
2023-05-10T07:16:18.977Z,96190.03
2023-05-10T07:18:45.334Z,96165.59
2023-05-10T07:21:11.680Z,96167.91
2023-05-10T07:23:38.053Z,96165.88
2023-05-10T07:26:04.348Z,96176.00
2023-05-10T07:28:30.704Z,96179.63
2023-05-10T07:30:57.037Z,96173.63
2023-05-10T07:33:23.369Z,96177.00
2023-05-10T07:35:49.674Z,96179.97
2023-05-10T07:38:15.998Z,96184.72
2023-05-10T07:40:42.295Z,96195.91
2023-05-10T07:43:08.594Z,96187.66
2023-05-10T07:45:34.994Z,96195.69
2023-05-10T07:48:01.448Z,96190.97
2023-05-10T07:50:27.771Z,96185.03
2023-05-10T07:52:54.091Z,96178.75
2023-05-10T07:55:20.378Z,96185.56
2023-05-10T07:57:46.682Z,96190.88
2023-05-10T08:00:13.007Z,96183.84
2023-05-10T08:02:39.429Z,96181.06
2023-05-10T08:05:05.808Z,96177.06
2023-05-10T08:07:32.107Z,96182.69
2023-05-10T08:09:58.393Z,96194.75
2023-05-10T08:12:24.676Z,96189.47
2023-05-10T08:14:50.981Z,96180.75
2023-05-10T08:17:19.283Z,96175.56
2023-05-10T08:19:46.194Z,96184.31
2023-05-10T08:22:12.500Z,96177.66
2023-05-10T08:24:38.818Z,96177.72
2023-05-10T08:27:05.111Z,96184.31
2023-05-10T08:29:38.666Z,96180.91
2023-05-10T08:32:15.847Z,96184.03
2023-05-10T08:34:42.320Z,96175.69
2023-05-10T08:37:08.626Z,96191.22
2023-05-10T08:39:35.059Z,96190.72
2023-05-10T08:42:01.370Z,96188.72
2023-05-10T08:44:27.783Z,96182.50
2023-05-10T08:46:54.255Z,96186.81
2023-05-10T08:49:20.621Z,96196.50
2023-05-10T08:51:46.916Z,96198.38
2023-05-10T08:54:13.216Z,96195.56
2023-05-10T08:56:39.583Z,96186.19
2023-05-10T08:59:05.959Z,96188.06
2023-05-10T09:01:32.330Z,96199.22
2023-05-10T09:03:58.750Z,96205.22
2023-05-10T09:06:25.103Z,96192.59
2023-05-10T09:08:51.504Z,96193.06
2023-05-10T09:11:17.809Z,96201.03
2023-05-10T09:13:44.107Z,96202.44
2023-05-10T09:16:20.952Z,96199.00
2023-05-10T09:18:47.867Z,96196.00
2023-05-10T09:21:14.221Z,96196.25
2023-05-10T09:23:40.509Z,96191.66
2023-05-10T09:26:06.825Z,96194.81
2023-05-10T09:28:33.135Z,96202.06
2023-05-10T09:30:59.492Z,96208.03
2023-05-10T09:33:25.867Z,96209.44
2023-05-10T09:35:52.153Z,96208.09
2023-05-10T09:38:18.458Z,96208.28
2023-05-10T09:40:44.780Z,96207.53
2023-05-10T09:43:11.075Z,96200.97
2023-05-10T09:45:38.965Z,96191.50
2023-05-10T09:48:05.727Z,96195.78
2023-05-10T09:50:32.085Z,96195.72
2023-05-10T09:52:58.396Z,96190.88
2023-05-10T09:55:24.726Z,96197.47
2023-05-10T09:57:51.063Z,96183.31
2023-05-10T10:00:17.355Z,96175.09
2023-05-10T10:02:43.719Z,96181.97
2023-05-10T10:05:10.224Z,96185.94
2023-05-10T10:07:36.694Z,96180.91
2023-05-10T10:10:03.018Z,96178.38
2023-05-10T10:12:29.340Z,96178.19
2023-05-10T10:14:55.637Z,96185.38
2023-05-10T10:17:22.001Z,96172.66
2023-05-10T10:19:48.319Z,96176.09
2023-05-10T10:22:14.623Z,96174.97
2023-05-10T10:24:40.948Z,96179.81
2023-05-10T10:27:07.247Z,96190.09
2023-05-10T10:29:33.551Z,96169.44
2023-05-10T10:31:59.915Z,96175.94
2023-05-10T10:34:26.247Z,96175.53
2023-05-10T10:36:52.544Z,96180.69
2023-05-10T10:39:18.909Z,96177.34
2023-05-10T10:41:45.207Z,96177.25
2023-05-10T10:44:11.522Z,96182.59
2023-05-10T10:46:37.870Z,96177.44
2023-05-10T10:49:04.193Z,96177.59
2023-05-10T10:51:30.492Z,96172.97
2023-05-10T10:53:56.807Z,96170.88
2023-05-10T10:56:23.102Z,96168.56
2023-05-10T10:58:49.398Z,96155.72
2023-05-10T11:01:15.798Z,96155.63
2023-05-10T11:03:42.179Z,96151.81
2023-05-10T11:06:08.488Z,96146.28
2023-05-10T11:08:36.405Z,96152.22
2023-05-10T11:11:04.591Z,96149.53
2023-05-10T11:13:30.937Z,96148.44
2023-05-10T11:15:57.252Z,96146.97
2023-05-10T11:18:23.587Z,96156.88
2023-05-10T11:20:49.897Z,96159.59
2023-05-10T11:23:16.214Z,96157.28
2023-05-10T11:25:42.519Z,96154.88
2023-05-10T11:28:08.988Z,96160.34
2023-05-10T11:30:35.315Z,96158.72
2023-05-10T11:33:01.644Z,96155.97
2023-05-10T11:35:27.965Z,96154.63
2023-05-10T11:37:54.285Z,96148.19
2023-05-10T11:40:20.567Z,96147.56
2023-05-10T11:42:46.863Z,96156.94
2023-05-10T11:45:13.236Z,96154.75
2023-05-10T11:47:40.833Z,96162.72
2023-05-10T11:50:08.939Z,96160.16
2023-05-10T11:52:35.264Z,96168.88
2023-05-10T11:55:01.569Z,96153.09
2023-05-10T11:57:27.885Z,96161.38
2023-05-10T11:59:54.193Z,96159.34
2023-05-10T12:02:20.921Z,96156.06
2023-05-10T12:04:47.392Z,96162.94
2023-05-10T12:07:13.715Z,96169.91
2023-05-10T12:09:44.068Z,96165.34
2023-05-10T12:12:10.807Z,96170.09
2023-05-10T12:14:37.134Z,96163.81
2023-05-10T12:17:03.431Z,96169.63
2023-05-10T12:19:29.775Z,96174.00
2023-05-10T12:21:56.099Z,96178.09
2023-05-10T12:24:22.391Z,96172.72
2023-05-10T12:26:49.624Z,96177.31
2023-05-10T12:29:15.936Z,96178.75
2023-05-10T12:31:42.313Z,96177.09
2023-05-10T12:34:10.178Z,96176.63
2023-05-10T12:36:36.494Z,96182.84
2023-05-10T12:39:02.786Z,96183.53
2023-05-10T12:41:29.073Z,96176.50
2023-05-10T12:43:55.386Z,96178.09
2023-05-10T12:46:21.761Z,96182.53
2023-05-10T12:48:48.123Z,96169.88
2023-05-10T12:51:14.469Z,96170.59
2023-05-10T12:53:43.374Z,96156.69
2023-05-10T12:56:10.992Z,96173.59
2023-05-10T12:58:37.339Z,96172.72
2023-05-10T13:01:03.734Z,96177.53
2023-05-10T13:03:30.139Z,96176.06
2023-05-10T13:05:56.439Z,96172.13
2023-05-10T13:08:22.752Z,96179.84
2023-05-10T13:10:49.052Z,96178.28
2023-05-10T13:13:15.378Z,96180.97
2023-05-10T13:15:41.672Z,96175.88
2023-05-10T13:18:08.046Z,96178.22
2023-05-10T13:20:36.118Z,96183.78
2023-05-10T13:23:02.715Z,96186.91
2023-05-10T13:25:29.022Z,96190.84
2023-05-10T13:27:55.340Z,96187.16
2023-05-10T13:30:21.617Z,96180.16
2023-05-10T13:32:47.950Z,96180.97
2023-05-10T13:35:14.291Z,96176.63
2023-05-10T13:37:40.588Z,96179.06
2023-05-10T13:40:06.888Z,96169.75
2023-05-10T13:42:33.199Z,96179.91
2023-05-10T13:44:59.509Z,96179.06
2023-05-10T13:47:25.837Z,96168.53
2023-05-10T13:49:52.169Z,96174.75
2023-05-10T13:52:18.449Z,96168.94
2023-05-10T13:54:44.759Z,96165.88
2023-05-10T13:57:11.116Z,96162.38
2023-05-10T13:59:37.418Z,96164.91
2023-05-10T14:02:03.848Z,96157.91
2023-05-10T14:04:30.182Z,96163.53
2023-05-10T14:06:56.475Z,96161.50
2023-05-10T14:09:22.762Z,96171.94
2023-05-10T14:11:49.077Z,96170.16
2023-05-10T14:14:15.365Z,96167.41
2023-05-10T14:16:41.736Z,96163.63
2023-05-10T14:19:08.240Z,96160.13
2023-05-10T14:21:34.629Z,96158.00
2023-05-10T14:24:00.936Z,96153.78
2023-05-10T14:26:27.255Z,96161.09
2023-05-10T14:28:53.636Z,96157.56
2023-05-10T14:31:20.056Z,96158.75
2023-05-10T14:33:46.412Z,96162.41
2023-05-10T14:36:12.711Z,96160.78
2023-05-10T14:38:38.999Z,96157.28
2023-05-10T14:41:05.322Z,96165.34
2023-05-10T14:43:31.620Z,96157.97
2023-05-10T14:45:57.934Z,96161.78
2023-05-10T14:48:24.285Z,96157.13
2023-05-10T14:50:50.586Z,96157.69
2023-05-10T14:53:16.892Z,96168.34
2023-05-10T14:55:43.214Z,96166.47
2023-05-10T14:58:09.521Z,96167.56
2023-05-10T15:00:35.823Z,96178.63
2023-05-10T15:03:03.081Z,96186.66
2023-05-10T15:05:29.875Z,96178.09
2023-05-10T15:07:56.507Z,96181.81
2023-05-10T15:10:22.828Z,96175.66
2023-05-10T15:12:49.123Z,96180.22
2023-05-10T15:15:15.697Z,96174.44
2023-05-10T15:17:42.174Z,96177.72
2023-05-10T15:20:08.495Z,96178.00
2023-05-10T15:22:34.785Z,96172.06
2023-05-10T15:25:01.114Z,96167.94
2023-05-10T15:27:27.418Z,96175.31
2023-05-10T15:29:53.715Z,96173.28
2023-05-10T15:32:20.780Z,96175.03
2023-05-10T15:34:47.117Z,96180.19
2023-05-10T15:37:15.503Z,96178.66
2023-05-10T15:39:41.974Z,96177.84
2023-05-10T15:42:08.353Z,96174.47
2023-05-10T15:44:34.646Z,96182.69
2023-05-10T15:47:00.998Z,96177.06
2023-05-10T15:49:27.340Z,96173.38
2023-05-10T15:51:53.635Z,96172.47
2023-05-10T15:54:19.945Z,96184.31
2023-05-10T15:56:46.247Z,96187.28
2023-05-10T15:59:12.558Z,96199.00
2023-05-10T16:01:38.875Z,96199.31
2023-05-10T16:04:05.354Z,96207.59
2023-05-10T16:06:31.647Z,96206.50
2023-05-10T16:08:58.014Z,96207.13
2023-05-10T16:11:24.321Z,96206.50
2023-05-10T16:13:50.641Z,96213.16
2023-05-10T16:16:17.104Z,96213.28
2023-05-10T16:18:43.750Z,96214.38
2023-05-10T16:21:10.121Z,96215.16
2023-05-10T16:23:36.435Z,96206.56
2023-05-10T16:26:04.279Z,96205.47
2023-05-10T16:28:30.573Z,96218.53
2023-05-10T16:30:56.943Z,96212.94
2023-05-10T16:33:23.248Z,96217.16
2023-05-10T16:35:49.552Z,96222.72
2023-05-10T16:38:15.868Z,96219.16
2023-05-10T16:40:42.173Z,96218.91
2023-05-10T16:43:08.486Z,96215.28
2023-05-10T16:45:34.815Z,96204.94
2023-05-10T16:48:01.244Z,96207.63
2023-05-10T16:50:27.536Z,96210.31
2023-05-10T16:52:53.840Z,96212.38
2023-05-10T16:55:20.130Z,96232.00
2023-05-10T16:57:46.442Z,96230.50
2023-05-10T17:00:12.776Z,96235.78
2023-05-10T17:02:39.162Z,96242.13
2023-05-10T17:05:05.526Z,96236.72
2023-05-10T17:07:31.839Z,96235.53
2023-05-10T17:09:58.144Z,96231.34
2023-05-10T17:12:24.443Z,96231.72
2023-05-10T17:14:50.806Z,96226.47
2023-05-10T17:17:17.106Z,96232.97
2023-05-10T17:19:43.390Z,96233.38
2023-05-10T17:22:09.704Z,96232.25
2023-05-10T17:24:36.066Z,96227.56
2023-05-10T17:27:02.360Z,96237.44
2023-05-10T17:29:28.689Z,96237.38
2023-05-10T17:31:55.038Z,96236.78
2023-05-10T17:34:21.382Z,96232.63
2023-05-10T17:36:47.697Z,96235.16
2023-05-10T17:39:13.982Z,96246.75
2023-05-10T17:41:40.278Z,96245.00
2023-05-10T17:44:06.591Z,96246.72
2023-05-10T17:46:32.872Z,96242.31
2023-05-10T17:48:59.170Z,96235.13
2023-05-10T17:51:25.512Z,96253.00
2023-05-10T17:53:51.809Z,96254.13
2023-05-10T17:56:18.112Z,96240.66
2023-05-10T17:58:44.430Z,96247.78
2023-05-10T18:01:10.750Z,96251.44
2023-05-10T18:03:37.067Z,96250.78
2023-05-10T18:06:03.441Z,96255.19
2023-05-10T18:08:29.796Z,96252.97
2023-05-10T18:10:56.094Z,96255.31
2023-05-10T18:13:22.405Z,96250.56
2023-05-10T18:15:48.700Z,96260.63
2023-05-10T18:18:15.178Z,96256.56
2023-05-10T18:20:41.897Z,96251.03
2023-05-10T18:23:08.210Z,96256.13
2023-05-10T18:25:34.528Z,96249.91
2023-05-10T18:28:00.982Z,96253.88
2023-05-10T18:30:27.287Z,96258.78
2023-05-10T18:32:53.619Z,96259.81
2023-05-10T18:35:20.198Z,96255.28
2023-05-10T18:37:46.731Z,96256.75
2023-05-10T18:40:13.036Z,96262.56
2023-05-10T18:42:39.364Z,96253.03
2023-05-10T18:45:05.696Z,96257.75
2023-05-10T18:47:32.005Z,96258.19
2023-05-10T18:49:58.308Z,96251.88
2023-05-10T18:52:24.625Z,96254.63
2023-05-10T18:54:53.696Z,96248.16
2023-05-10T18:57:20.007Z,96250.22
2023-05-10T18:59:46.306Z,96254.63
2023-05-10T19:02:12.725Z,96253.53
2023-05-10T19:04:39.110Z,96251.88
2023-05-10T19:07:05.415Z,96260.69
2023-05-10T19:09:31.713Z,96263.84
2023-05-10T19:11:58.014Z,96268.44
2023-05-10T19:14:24.302Z,96273.13
2023-05-10T19:16:50.598Z,96268.84
2023-05-10T19:19:16.907Z,96271.09
2023-05-10T19:21:43.265Z,96266.03
2023-05-10T19:24:10.696Z,96262.75
2023-05-10T19:26:37.260Z,96280.97
2023-05-10T19:29:03.570Z,96282.41
2023-05-10T19:31:29.951Z,96275.69
2023-05-10T19:33:58.058Z,96279.38
2023-05-10T19:36:26.890Z,96285.22
2023-05-10T19:38:53.193Z,96286.88
2023-05-10T19:41:19.718Z,96281.84
2023-05-10T19:43:46.014Z,96278.81
2023-05-10T19:46:14.311Z,96297.53
2023-05-10T19:48:41.026Z,96300.66
2023-05-10T19:51:09.430Z,96287.91
2023-05-10T19:53:36.605Z,96291.69
2023-05-10T19:56:03.241Z,96294.28
2023-05-10T19:58:29.531Z,96289.44
2023-05-10T20:00:55.867Z,96292.94
2023-05-10T20:03:22.234Z,96286.28
2023-05-10T20:05:48.546Z,96286.53
2023-05-10T20:08:14.905Z,96292.56
2023-05-10T20:10:41.214Z,96292.25
2023-05-10T20:13:07.538Z,96295.28
2023-05-10T20:15:33.835Z,96293.13
2023-05-10T20:18:00.264Z,96285.66
2023-05-10T20:20:26.592Z,96282.28
2023-05-10T20:22:52.909Z,96287.75
2023-05-10T20:25:19.212Z,96291.59
2023-05-10T20:27:45.503Z,96283.78
2023-05-10T20:30:11.811Z,96285.09
2023-05-10T20:32:38.198Z,96279.94
2023-05-10T20:35:04.531Z,96279.16
2023-05-10T20:37:30.848Z,96278.38
2023-05-10T20:39:57.157Z,96278.81
2023-05-10T20:42:24.982Z,96282.31
2023-05-10T20:44:51.275Z,96277.59
2023-05-10T20:47:17.596Z,96278.72
2023-05-10T20:49:43.996Z,96291.22
2023-05-10T20:52:10.293Z,96281.38
2023-05-10T20:54:36.625Z,96288.97
2023-05-10T20:57:02.918Z,96292.13
2023-05-10T20:59:29.220Z,96292.16
2023-05-10T21:01:55.655Z,96284.78
2023-05-10T21:04:21.993Z,96291.22
2023-05-10T21:06:48.302Z,96291.16
2023-05-10T21:09:14.636Z,96291.25
2023-05-10T21:11:40.929Z,96302.13
2023-05-10T21:14:07.229Z,96298.94
2023-05-10T21:16:33.627Z,96295.47
2023-05-10T21:18:59.983Z,96300.19
2023-05-10T21:21:26.727Z,96297.59
2023-05-10T21:23:53.097Z,96294.50
2023-05-10T21:26:19.559Z,96302.44
2023-05-10T21:28:45.892Z,96296.59
2023-05-10T21:31:12.317Z,96300.06
2023-05-10T21:33:38.680Z,96306.13
2023-05-10T21:36:05.013Z,96300.78
2023-05-10T21:38:31.386Z,96292.56
2023-05-10T21:40:57.676Z,96294.81
2023-05-10T21:43:23.976Z,96291.38
2023-05-10T21:45:50.313Z,96293.47
2023-05-10T21:48:16.614Z,96297.06
2023-05-10T21:50:42.969Z,96288.47
2023-05-10T21:53:09.280Z,96279.97
2023-05-10T21:55:35.574Z,96278.38
2023-05-10T21:58:01.878Z,96278.03
2023-05-10T22:00:28.189Z,96272.03
2023-05-10T22:02:54.588Z,96280.75
2023-05-10T22:05:22.042Z,96276.84
2023-05-10T22:07:48.361Z,96283.06
2023-05-10T22:10:14.691Z,96285.31
2023-05-10T22:12:41.016Z,96284.06
2023-05-10T22:15:10.522Z,96292.94
2023-05-10T22:17:37.374Z,96296.06
2023-05-10T22:20:03.683Z,96288.25
2023-05-10T22:22:30.330Z,96286.88
2023-05-10T22:24:56.625Z,96296.19
2023-05-10T22:27:23.040Z,96296.16
2023-05-10T22:29:49.349Z,96297.28
2023-05-10T22:32:15.660Z,96298.84
2023-05-10T22:34:41.949Z,96298.53
2023-05-10T22:37:08.947Z,96294.50
2023-05-10T22:39:35.241Z,96293.59
2023-05-10T22:42:01.548Z,96296.63
2023-05-10T22:44:27.894Z,96301.53
2023-05-10T22:46:54.242Z,96296.53
2023-05-10T22:49:20.559Z,96299.72
2023-05-10T22:51:46.879Z,96295.06
2023-05-10T22:54:13.180Z,96302.63
2023-05-10T22:56:39.460Z,96296.28
2023-05-10T22:59:05.789Z,96288.63
2023-05-10T23:01:32.122Z,96295.25
2023-05-10T23:03:58.451Z,96293.00
2023-05-10T23:06:24.768Z,96284.97
2023-05-10T23:08:51.048Z,96285.66
2023-05-10T23:11:17.362Z,96291.03
2023-05-10T23:13:43.670Z,96279.09
2023-05-10T23:16:09.987Z,96282.22
2023-05-10T23:18:36.341Z,96283.56
2023-05-10T23:21:02.668Z,96283.91
2023-05-10T23:23:29.005Z,96277.59
2023-05-10T23:25:55.537Z,96273.88
2023-05-10T23:28:21.907Z,96285.84
2023-05-10T23:30:48.215Z,96278.25
2023-05-10T23:33:14.538Z,96274.41
2023-05-10T23:35:40.841Z,96272.19
2023-05-10T23:38:07.128Z,96281.28
2023-05-10T23:40:33.419Z,96277.19
2023-05-10T23:42:59.722Z,96275.88
2023-05-10T23:45:26.122Z,96268.41
2023-05-10T23:47:52.543Z,96264.59
2023-05-10T23:50:19.080Z,96275.09
2023-05-10T23:52:45.574Z,96271.63
2023-05-10T23:55:11.878Z,96258.47
2023-05-10T23:57:38.192Z,96258.16
